sensor_id;sensor_type;location;lat;lon;timestamp;temperature;humidity
41437;DHT22;27178;49.460;10.850;2023-08-01T00:01:55;23.30;78.30
41437;DHT22;27178;49.460;10.850;2023-08-01T00:04:25;22.60;78.00
41437;DHT22;27178;49.460;10.850;2023-08-01T00:06:53;22.60;78.20
41437;DHT22;27178;49.460;10.850;2023-08-01T00:09:22;22.60;78.20
41437;DHT22;27178;49.460;10.850;2023-08-01T00:11:50;22.60;78.20
41437;DHT22;27178;49.460;10.850;2023-08-01T00:14:18;22.30;78.20
41437;DHT22;27178;49.460;10.850;2023-08-01T00:16:47;22.80;78.40
41437;DHT22;27178;49.460;10.850;2023-08-01T00:19:15;23.80;79.30
41437;DHT22;27178;49.460;10.850;2023-08-01T00:21:45;22.40;78.20
41437;DHT22;27178;49.460;10.850;2023-08-01T00:24:13;22.60;78.60
41437;DHT22;27178;49.460;10.850;2023-08-01T00:26:42;23.80;79.40
41437;DHT22;27178;49.460;10.850;2023-08-01T00:29:10;24.20;79.60
41437;DHT22;27178;49.460;10.850;2023-08-01T00:31:38;23.20;79.20
41437;DHT22;27178;49.460;10.850;2023-08-01T00:34:07;23.20;79.30
41437;DHT22;27178;49.460;10.850;2023-08-01T00:36:35;22.70;79.10
41437;DHT22;27178;49.460;10.850;2023-08-01T00:39:05;22.70;79.00
41437;DHT22;27178;49.460;10.850;2023-08-01T00:41:32;22.60;79.00
41437;DHT22;27178;49.460;10.850;2023-08-01T00:44:00;24.50;80.30
41437;DHT22;27178;49.460;10.850;2023-08-01T00:46:29;23.30;79.60
41437;DHT22;27178;49.460;10.850;2023-08-01T00:48:57;22.80;79.50
41437;DHT22;27178;49.460;10.850;2023-08-01T00:51:29;23.40;80.10
41437;DHT22;27178;49.460;10.850;2023-08-01T00:53:58;22.60;79.60
41437;DHT22;27178;49.460;10.850;2023-08-01T00:56:28;22.70;79.50
41437;DHT22;27178;49.460;10.850;2023-08-01T00:58:56;22.70;79.70
41437;DHT22;27178;49.460;10.850;2023-08-01T01:01:25;22.60;79.40
41437;DHT22;27178;49.460;10.850;2023-08-01T01:03:54;23.40;79.80
41437;DHT22;27178;49.460;10.850;2023-08-01T01:06:25;24.20;80.60
41437;DHT22;27178;49.460;10.850;2023-08-01T01:08:54;23.10;79.90
41437;DHT22;27178;49.460;10.850;2023-08-01T01:11:23;22.60;79.90
41437;DHT22;27178;49.460;10.850;2023-08-01T01:13:52;23.90;80.70
41437;DHT22;27178;49.460;10.850;2023-08-01T01:16:21;22.60;79.60
41437;DHT22;27178;49.460;10.850;2023-08-01T01:18:49;22.20;79.40
41437;DHT22;27178;49.460;10.850;2023-08-01T01:21:19;22.30;79.60
41437;DHT22;27178;49.460;10.850;2023-08-01T01:23:49;23.60;80.40
41437;DHT22;27178;49.460;10.850;2023-08-01T01:26:19;22.90;80.10
41437;DHT22;27178;49.460;10.850;2023-08-01T01:28:50;22.60;80.00
41437;DHT22;27178;49.460;10.850;2023-08-01T01:31:19;23.50;80.30
41437;DHT22;27178;49.460;10.850;2023-08-01T01:33:47;22.50;79.70
41437;DHT22;27178;49.460;10.850;2023-08-01T01:36:16;23.20;79.80
41437;DHT22;27178;49.460;10.850;2023-08-01T01:38:46;22.80;79.60
41437;DHT22;27178;49.460;10.850;2023-08-01T01:41:14;23.30;80.10
41437;DHT22;27178;49.460;10.850;2023-08-01T01:43:43;24.00;80.60
41437;DHT22;27178;49.460;10.850;2023-08-01T01:46:11;22.50;79.70
41437;DHT22;27178;49.460;10.850;2023-08-01T01:48:39;23.50;80.50
41437;DHT22;27178;49.460;10.850;2023-08-01T01:51:08;22.50;79.90
41437;DHT22;27178;49.460;10.850;2023-08-01T01:53:37;23.40;80.50
41437;DHT22;27178;49.460;10.850;2023-08-01T01:56:06;23.00;80.30
41437;DHT22;27178;49.460;10.850;2023-08-01T01:58:35;23.90;81.00
41437;DHT22;27178;49.460;10.850;2023-08-01T02:01:03;22.90;80.40
41437;DHT22;27178;49.460;10.850;2023-08-01T02:03:31;22.40;80.10
41437;DHT22;27178;49.460;10.850;2023-08-01T02:05:59;22.30;80.20
41437;DHT22;27178;49.460;10.850;2023-08-01T02:08:28;22.30;80.30
41437;DHT22;27178;49.460;10.850;2023-08-01T02:10:56;22.30;80.40
41437;DHT22;27178;49.460;10.850;2023-08-01T02:13:28;22.40;80.40
41437;DHT22;27178;49.460;10.850;2023-08-01T02:15:58;22.30;80.30
41437;DHT22;27178;49.460;10.850;2023-08-01T02:18:26;22.90;81.00
41437;DHT22;27178;49.460;10.850;2023-08-01T02:20:54;22.30;80.60
41437;DHT22;27178;49.460;10.850;2023-08-01T02:23:23;22.30;80.60
41437;DHT22;27178;49.460;10.850;2023-08-01T02:25:51;22.70;81.00
41437;DHT22;27178;49.460;10.850;2023-08-01T02:28:21;22.70;81.20
41437;DHT22;27178;49.460;10.850;2023-08-01T02:30:51;22.30;80.90
41437;DHT22;27178;49.460;10.850;2023-08-01T02:33:19;22.30;81.00
41437;DHT22;27178;49.460;10.850;2023-08-01T02:35:47;23.50;81.60
41437;DHT22;27178;49.460;10.850;2023-08-01T02:38:16;23.90;81.80
41437;DHT22;27178;49.460;10.850;2023-08-01T02:40:44;23.40;81.40
41437;DHT22;27178;49.460;10.850;2023-08-01T02:43:12;24.00;81.80
41437;DHT22;27178;49.460;10.850;2023-08-01T02:45:41;24.00;81.80
41437;DHT22;27178;49.460;10.850;2023-08-01T02:48:11;22.70;81.30
41437;DHT22;27178;49.460;10.850;2023-08-01T02:50:39;23.60;81.70
41437;DHT22;27178;49.460;10.850;2023-08-01T02:53:08;22.40;81.00
41437;DHT22;27178;49.460;10.850;2023-08-01T02:55:36;22.20;80.90
41437;DHT22;27178;49.460;10.850;2023-08-01T02:58:05;23.80;82.80
41437;DHT22;27178;49.460;10.850;2023-08-01T03:00:34;23.00;81.60
41437;DHT22;27178;49.460;10.850;2023-08-01T03:03:05;23.70;82.00
41437;DHT22;27178;49.460;10.850;2023-08-01T03:05:37;22.20;80.80
41437;DHT22;27178;49.460;10.850;2023-08-01T03:08:05;22.90;81.60
41437;DHT22;27178;49.460;10.850;2023-08-01T03:10:33;22.60;81.70
41437;DHT22;27178;49.460;10.850;2023-08-01T03:13:03;22.20;81.30
41437;DHT22;27178;49.460;10.850;2023-08-01T03:15:32;23.20;82.10
41437;DHT22;27178;49.460;10.850;2023-08-01T03:18:00;22.10;81.40
41437;DHT22;27178;49.460;10.850;2023-08-01T03:20:28;22.10;81.50
41437;DHT22;27178;49.460;10.850;2023-08-01T03:22:58;22.10;81.60
41437;DHT22;27178;49.460;10.850;2023-08-01T03:25:25;22.10;81.60
41437;DHT22;27178;49.460;10.850;2023-08-01T03:27:53;22.10;81.80
41437;DHT22;27178;49.460;10.850;2023-08-01T03:30:22;22.60;82.10
41437;DHT22;27178;49.460;10.850;2023-08-01T03:32:51;23.30;82.40
41437;DHT22;27178;49.460;10.850;2023-08-01T03:35:19;22.80;82.50
41437;DHT22;27178;49.460;10.850;2023-08-01T03:37:48;22.00;82.10
41437;DHT22;27178;49.460;10.850;2023-08-01T03:40:17;22.60;82.50
41437;DHT22;27178;49.460;10.850;2023-08-01T03:42:46;23.20;82.70
41437;DHT22;27178;49.460;10.850;2023-08-01T03:45:15;22.30;82.10
41437;DHT22;27178;49.460;10.850;2023-08-01T03:47:43;21.90;82.10
41437;DHT22;27178;49.460;10.850;2023-08-01T03:50:11;21.90;82.10
41437;DHT22;27178;49.460;10.850;2023-08-01T03:52:41;22.80;82.80
41437;DHT22;27178;49.460;10.850;2023-08-01T03:55:09;22.60;82.80
41437;DHT22;27178;49.460;10.850;2023-08-01T03:57:38;21.90;82.30
41437;DHT22;27178;49.460;10.850;2023-08-01T04:00:08;22.30;82.50
41437;DHT22;27178;49.460;10.850;2023-08-01T04:02:40;21.90;82.40
41437;DHT22;27178;49.460;10.850;2023-08-01T04:05:13;21.90;82.10
41437;DHT22;27178;49.460;10.850;2023-08-01T04:07:41;21.90;82.30
41437;DHT22;27178;49.460;10.850;2023-08-01T04:10:10;22.20;82.70
41437;DHT22;27178;49.460;10.850;2023-08-01T04:12:39;22.30;82.90
41437;DHT22;27178;49.460;10.850;2023-08-01T04:15:09;22.90;83.40
41437;DHT22;27178;49.460;10.850;2023-08-01T04:17:38;21.80;82.60
41437;DHT22;27178;49.460;10.850;2023-08-01T04:20:06;21.80;82.80
41437;DHT22;27178;49.460;10.850;2023-08-01T04:22:35;21.80;82.90
41437;DHT22;27178;49.460;10.850;2023-08-01T04:25:03;22.30;83.00
41437;DHT22;27178;49.460;10.850;2023-08-01T04:27:32;21.80;82.80
41437;DHT22;27178;49.460;10.850;2023-08-01T04:30:01;21.80;82.60
41437;DHT22;27178;49.460;10.850;2023-08-01T04:32:30;21.80;82.80
41437;DHT22;27178;49.460;10.850;2023-08-01T04:34:58;23.00;83.60
41437;DHT22;27178;49.460;10.850;2023-08-01T04:37:26;21.80;83.00
41437;DHT22;27178;49.460;10.850;2023-08-01T04:39:55;21.80;83.20
41437;DHT22;27178;49.460;10.850;2023-08-01T04:42:23;21.70;83.10
41437;DHT22;27178;49.460;10.850;2023-08-01T04:44:51;21.70;83.20
41437;DHT22;27178;49.460;10.850;2023-08-01T04:47:20;21.90;83.60
41437;DHT22;27178;49.460;10.850;2023-08-01T04:49:49;21.70;83.60
41437;DHT22;27178;49.460;10.850;2023-08-01T04:52:18;21.70;83.60
41437;DHT22;27178;49.460;10.850;2023-08-01T04:54:46;21.90;83.90
41437;DHT22;27178;49.460;10.850;2023-08-01T04:57:14;21.70;83.60
41437;DHT22;27178;49.460;10.850;2023-08-01T04:59:43;22.20;84.00
41437;DHT22;27178;49.460;10.850;2023-08-01T05:02:11;21.80;83.70
41437;DHT22;27178;49.460;10.850;2023-08-01T05:04:40;21.80;83.80
41437;DHT22;27178;49.460;10.850;2023-08-01T05:07:09;23.80;85.30
41437;DHT22;27178;49.460;10.850;2023-08-01T05:09:37;22.00;84.00
41437;DHT22;27178;49.460;10.850;2023-08-01T05:12:06;22.10;84.10
41437;DHT22;27178;49.460;10.850;2023-08-01T05:14:35;21.80;84.00
41437;DHT22;27178;49.460;10.850;2023-08-01T05:17:04;21.80;83.80
41437;DHT22;27178;49.460;10.850;2023-08-01T05:19:32;21.80;83.90
41437;DHT22;27178;49.460;10.850;2023-08-01T05:22:01;21.80;83.90
41437;DHT22;27178;49.460;10.850;2023-08-01T05:24:30;21.70;84.70
41437;DHT22;27178;49.460;10.850;2023-08-01T05:26:58;21.60;83.90
41437;DHT22;27178;49.460;10.850;2023-08-01T05:29:26;22.50;84.60
41437;DHT22;27178;49.460;10.850;2023-08-01T05:31:54;21.50;83.70
41437;DHT22;27178;49.460;10.850;2023-08-01T05:34:24;23.10;84.80
41437;DHT22;27178;49.460;10.850;2023-08-01T05:36:53;21.70;84.00
41437;DHT22;27178;49.460;10.850;2023-08-01T05:39:23;22.60;84.60
41437;DHT22;27178;49.460;10.850;2023-08-01T05:41:51;21.70;84.10
41437;DHT22;27178;49.460;10.850;2023-08-01T05:44:20;21.90;84.30
41437;DHT22;27178;49.460;10.850;2023-08-01T05:46:48;21.30;84.10
41437;DHT22;27178;49.460;10.850;2023-08-01T05:49:20;23.20;85.30
41437;DHT22;27178;49.460;10.850;2023-08-01T05:51:51;21.20;84.10
41437;DHT22;27178;49.460;10.850;2023-08-01T05:54:20;21.70;84.30
41437;DHT22;27178;49.460;10.850;2023-08-01T05:56:55;21.80;84.30
41437;DHT22;27178;49.460;10.850;2023-08-01T05:59:24;22.90;85.30
41437;DHT22;27178;49.460;10.850;2023-08-01T06:01:54;21.70;84.60
41437;DHT22;27178;49.460;10.850;2023-08-01T06:04:22;21.70;84.70
41437;DHT22;27178;49.460;10.850;2023-08-01T06:06:53;22.20;85.30
41437;DHT22;27178;49.460;10.850;2023-08-01T06:09:23;21.80;85.40
41437;DHT22;27178;49.460;10.850;2023-08-01T06:11:54;21.80;85.20
41437;DHT22;27178;49.460;10.850;2023-08-01T06:14:27;21.80;85.30
41437;DHT22;27178;49.460;10.850;2023-08-01T06:16:55;23.00;85.90
41437;DHT22;27178;49.460;10.850;2023-08-01T06:19:23;22.00;85.30
41437;DHT22;27178;49.460;10.850;2023-08-01T06:21:52;21.80;85.20
41437;DHT22;27178;49.460;10.850;2023-08-01T06:24:20;22.60;85.60
41437;DHT22;27178;49.460;10.850;2023-08-01T06:26:48;21.90;85.20
41437;DHT22;27178;49.460;10.850;2023-08-01T06:29:17;21.80;85.30
41437;DHT22;27178;49.460;10.850;2023-08-01T06:31:46;22.50;86.10
41437;DHT22;27178;49.460;10.850;2023-08-01T06:34:14;21.80;85.50
41437;DHT22;27178;49.460;10.850;2023-08-01T06:36:42;21.90;85.90
41437;DHT22;27178;49.460;10.850;2023-08-01T06:39:10;21.80;85.80
41437;DHT22;27178;49.460;10.850;2023-08-01T06:41:38;21.80;85.70
41437;DHT22;27178;49.460;10.850;2023-08-01T06:44:07;21.80;85.60
41437;DHT22;27178;49.460;10.850;2023-08-01T06:46:37;21.80;85.50
41437;DHT22;27178;49.460;10.850;2023-08-01T06:49:05;21.80;85.50
41437;DHT22;27178;49.460;10.850;2023-08-01T06:51:33;22.10;85.60
41437;DHT22;27178;49.460;10.850;2023-08-01T06:54:01;21.80;85.60
41437;DHT22;27178;49.460;10.850;2023-08-01T06:56:30;21.80;85.60
41437;DHT22;27178;49.460;10.850;2023-08-01T06:58:58;21.80;85.80
41437;DHT22;27178;49.460;10.850;2023-08-01T07:01:26;21.80;86.00
41437;DHT22;27178;49.460;10.850;2023-08-01T07:03:56;21.80;86.00
41437;DHT22;27178;49.460;10.850;2023-08-01T07:06:24;22.70;86.90
41437;DHT22;27178;49.460;10.850;2023-08-01T07:08:53;21.80;86.30
41437;DHT22;27178;49.460;10.850;2023-08-01T07:11:22;21.90;86.40
41437;DHT22;27178;49.460;10.850;2023-08-01T07:13:50;21.90;86.50
41437;DHT22;27178;49.460;10.850;2023-08-01T07:16:18;21.90;86.30
41437;DHT22;27178;49.460;10.850;2023-08-01T07:18:47;21.90;86.50
41437;DHT22;27178;49.460;10.850;2023-08-01T07:21:17;21.90;86.60
41437;DHT22;27178;49.460;10.850;2023-08-01T07:23:45;21.90;86.40
41437;DHT22;27178;49.460;10.850;2023-08-01T07:26:15;22.80;87.10
41437;DHT22;27178;49.460;10.850;2023-08-01T07:28:44;22.10;86.60
41437;DHT22;27178;49.460;10.850;2023-08-01T07:31:12;22.00;86.50
41437;DHT22;27178;49.460;10.850;2023-08-01T07:33:40;22.00;86.40
41437;DHT22;27178;49.460;10.850;2023-08-01T07:36:08;21.90;86.60
41437;DHT22;27178;49.460;10.850;2023-08-01T07:38:38;22.90;87.30
41437;DHT22;27178;49.460;10.850;2023-08-01T07:41:06;21.90;86.80
41437;DHT22;27178;49.460;10.850;2023-08-01T07:43:34;21.90;86.80
41437;DHT22;27178;49.460;10.850;2023-08-01T07:46:03;22.80;87.50
41437;DHT22;27178;49.460;10.850;2023-08-01T07:48:31;21.90;87.10
41437;DHT22;27178;49.460;10.850;2023-08-01T07:51:00;22.00;86.90
41437;DHT22;27178;49.460;10.850;2023-08-01T07:53:28;22.00;86.90
41437;DHT22;27178;49.460;10.850;2023-08-01T07:55:58;22.10;87.10
41437;DHT22;27178;49.460;10.850;2023-08-01T07:58:26;21.10;86.30
41437;DHT22;27178;49.460;10.850;2023-08-01T08:00:54;21.90;87.50
41437;DHT22;27178;49.460;10.850;2023-08-01T08:03:22;21.90;87.70
41437;DHT22;27178;49.460;10.850;2023-08-01T08:05:51;22.10;87.30
41437;DHT22;27178;49.460;10.850;2023-08-01T08:08:19;22.00;86.20
41437;DHT22;27178;49.460;10.850;2023-08-01T08:10:47;22.20;85.60
41437;DHT22;27178;49.460;10.850;2023-08-01T08:13:16;22.00;85.00
41437;DHT22;27178;49.460;10.850;2023-08-01T08:15:44;22.00;84.20
41437;DHT22;27178;49.460;10.850;2023-08-01T08:18:12;22.00;84.40
41437;DHT22;27178;49.460;10.850;2023-08-01T08:20:44;22.00;83.80
41437;DHT22;27178;49.460;10.850;2023-08-01T08:23:12;22.10;83.60
41437;DHT22;27178;49.460;10.850;2023-08-01T08:25:42;22.50;83.80
41437;DHT22;27178;49.460;10.850;2023-08-01T08:28:12;21.90;83.70
41437;DHT22;27178;49.460;10.850;2023-08-01T08:30:42;21.90;83.20
41437;DHT22;27178;49.460;10.850;2023-08-01T08:33:19;22.20;83.60
41437;DHT22;27178;49.460;10.850;2023-08-01T08:35:47;22.40;84.30
41437;DHT22;27178;49.460;10.850;2023-08-01T08:38:17;22.50;83.20
41437;DHT22;27178;49.460;10.850;2023-08-01T08:40:55;21.80;83.50
41437;DHT22;27178;49.460;10.850;2023-08-01T08:43:26;21.70;83.40
41437;DHT22;27178;49.460;10.850;2023-08-01T08:45:57;22.50;83.80
41437;DHT22;27178;49.460;10.850;2023-08-01T08:48:26;21.70;83.50
41437;DHT22;27178;49.460;10.850;2023-08-01T08:50:57;21.70;82.70
41437;DHT22;27178;49.460;10.850;2023-08-01T08:53:26;21.60;82.50
41437;DHT22;27178;49.460;10.850;2023-08-01T08:55:55;21.60;82.40
41437;DHT22;27178;49.460;10.850;2023-08-01T08:58:23;21.60;82.60
41437;DHT22;27178;49.460;10.850;2023-08-01T09:00:52;21.50;83.40
41437;DHT22;27178;49.460;10.850;2023-08-01T09:03:21;21.50;83.00
41437;DHT22;27178;49.460;10.850;2023-08-01T09:05:50;21.50;82.50
41437;DHT22;27178;49.460;10.850;2023-08-01T09:08:21;21.50;82.30
41437;DHT22;27178;49.460;10.850;2023-08-01T09:10:52;22.20;83.30
41437;DHT22;27178;49.460;10.850;2023-08-01T09:13:20;21.50;82.90
41437;DHT22;27178;49.460;10.850;2023-08-01T09:15:49;21.80;82.90
41437;DHT22;27178;49.460;10.850;2023-08-01T09:18:18;22.30;83.20
41437;DHT22;27178;49.460;10.850;2023-08-01T09:20:49;22.40;83.00
41437;DHT22;27178;49.460;10.850;2023-08-01T09:23:18;21.60;82.20
41437;DHT22;27178;49.460;10.850;2023-08-01T09:25:46;21.90;82.30
41437;DHT22;27178;49.460;10.850;2023-08-01T09:28:18;22.70;82.80
41437;DHT22;27178;49.460;10.850;2023-08-01T09:30:48;21.90;81.70
41437;DHT22;27178;49.460;10.850;2023-08-01T09:33:17;21.60;81.70
41437;DHT22;27178;49.460;10.850;2023-08-01T09:35:45;21.70;82.00
41437;DHT22;27178;49.460;10.850;2023-08-01T09:38:15;21.70;81.60
41437;DHT22;27178;49.460;10.850;2023-08-01T09:40:45;21.70;81.70
41437;DHT22;27178;49.460;10.850;2023-08-01T09:43:14;21.70;81.30
41437;DHT22;27178;49.460;10.850;2023-08-01T09:45:52;21.70;80.80
41437;DHT22;27178;49.460;10.850;2023-08-01T09:48:25;21.70;80.60
41437;DHT22;27178;49.460;10.850;2023-08-01T09:51:07;21.70;80.70
41437;DHT22;27178;49.460;10.850;2023-08-01T09:53:47;23.10;80.50
41437;DHT22;27178;49.460;10.850;2023-08-01T09:56:19;21.70;79.90
41437;DHT22;27178;49.460;10.850;2023-08-01T09:58:49;21.70;81.00
41437;DHT22;27178;49.460;10.850;2023-08-01T10:01:19;23.20;81.70
41437;DHT22;27178;49.460;10.850;2023-08-01T10:03:49;21.80;81.10
41437;DHT22;27178;49.460;10.850;2023-08-01T10:06:18;22.10;81.30
41437;DHT22;27178;49.460;10.850;2023-08-01T10:08:49;22.10;80.80
41437;DHT22;27178;49.460;10.850;2023-08-01T10:11:20;22.50;81.00
41437;DHT22;27178;49.460;10.850;2023-08-01T10:13:49;21.90;81.20
41437;DHT22;27178;49.460;10.850;2023-08-01T10:16:17;22.10;81.40
41437;DHT22;27178;49.460;10.850;2023-08-01T10:18:46;22.00;81.10
41437;DHT22;27178;49.460;10.850;2023-08-01T10:21:16;22.00;80.80
41437;DHT22;27178;49.460;10.850;2023-08-01T10:23:47;23.40;82.70
41437;DHT22;27178;49.460;10.850;2023-08-01T10:26:15;22.30;81.20
41437;DHT22;27178;49.460;10.850;2023-08-01T10:28:50;23.10;81.40
41437;DHT22;27178;49.460;10.850;2023-08-01T10:31:20;22.00;80.10
41437;DHT22;27178;49.460;10.850;2023-08-01T10:33:49;22.00;80.70
41437;DHT22;27178;49.460;10.850;2023-08-01T10:36:19;22.10;80.60
41437;DHT22;27178;49.460;10.850;2023-08-01T10:38:50;22.40;80.10
41437;DHT22;27178;49.460;10.850;2023-08-01T10:41:20;22.00;79.90
41437;DHT22;27178;49.460;10.850;2023-08-01T10:43:48;22.60;80.40
41437;DHT22;27178;49.460;10.850;2023-08-01T10:46:17;23.50;80.90
41437;DHT22;27178;49.460;10.850;2023-08-01T10:48:50;22.20;79.70
41437;DHT22;27178;49.460;10.850;2023-08-01T10:51:19;22.10;80.00
41437;DHT22;27178;49.460;10.850;2023-08-01T10:53:49;22.10;80.60
41437;DHT22;27178;49.460;10.850;2023-08-01T10:56:18;22.20;79.40
41437;DHT22;27178;49.460;10.850;2023-08-01T10:58:48;23.70;80.40
41437;DHT22;27178;49.460;10.850;2023-08-01T11:01:16;22.40;80.00
41437;DHT22;27178;49.460;10.850;2023-08-01T11:03:45;22.20;79.70
41437;DHT22;27178;49.460;10.850;2023-08-01T11:06:13;22.30;79.10
41437;DHT22;27178;49.460;10.850;2023-08-01T11:08:42;22.40;78.70
41437;DHT22;27178;49.460;10.850;2023-08-01T11:11:13;22.40;78.60
41437;DHT22;27178;49.460;10.850;2023-08-01T11:13:50;22.50;79.10
41437;DHT22;27178;49.460;10.850;2023-08-01T11:16:19;22.60;78.00
41437;DHT22;27178;49.460;10.850;2023-08-01T11:18:47;22.40;78.80
41437;DHT22;27178;49.460;10.850;2023-08-01T11:21:28;23.90;79.10
41437;DHT22;27178;49.460;10.850;2023-08-01T11:23:56;22.70;76.70
41437;DHT22;27178;49.460;10.850;2023-08-01T11:26:26;22.80;78.60
41437;DHT22;27178;49.460;10.850;2023-08-01T11:28:54;22.70;77.40
41437;DHT22;27178;49.460;10.850;2023-08-01T11:31:22;22.70;77.50
41437;DHT22;27178;49.460;10.850;2023-08-01T11:33:55;22.70;77.20
41437;DHT22;27178;49.460;10.850;2023-08-01T11:36:25;22.70;76.60
41437;DHT22;27178;49.460;10.850;2023-08-01T11:38:56;22.70;77.20
41437;DHT22;27178;49.460;10.850;2023-08-01T11:41:26;22.70;77.10
41437;DHT22;27178;49.460;10.850;2023-08-01T11:43:55;22.70;76.30
41437;DHT22;27178;49.460;10.850;2023-08-01T11:46:30;22.70;75.50
41437;DHT22;27178;49.460;10.850;2023-08-01T11:48:59;22.60;74.30
41437;DHT22;27178;49.460;10.850;2023-08-01T11:51:28;22.60;73.10
41437;DHT22;27178;49.460;10.850;2023-08-01T11:54:00;22.50;73.00
41437;DHT22;27178;49.460;10.850;2023-08-01T11:56:31;22.50;72.90
41437;DHT22;27178;49.460;10.850;2023-08-01T11:59:00;22.40;72.60
41437;DHT22;27178;49.460;10.850;2023-08-01T12:01:38;22.30;73.00
41437;DHT22;27178;49.460;10.850;2023-08-01T12:04:07;22.30;72.90
41437;DHT22;27178;49.460;10.850;2023-08-01T12:06:36;22.30;73.90
41437;DHT22;27178;49.460;10.850;2023-08-01T12:09:10;22.30;73.70
41437;DHT22;27178;49.460;10.850;2023-08-01T12:11:40;22.30;73.50
41437;DHT22;27178;49.460;10.850;2023-08-01T12:14:10;22.40;74.00
41437;DHT22;27178;49.460;10.850;2023-08-01T12:16:40;22.50;74.40
41437;DHT22;27178;49.460;10.850;2023-08-01T12:19:09;22.60;73.90
41437;DHT22;27178;49.460;10.850;2023-08-01T12:21:37;22.70;73.60
41437;DHT22;27178;49.460;10.850;2023-08-01T12:24:05;22.70;74.70
41437;DHT22;27178;49.460;10.850;2023-08-01T12:26:34;23.10;74.50
41437;DHT22;27178;49.460;10.850;2023-08-01T12:29:03;23.20;74.30
41437;DHT22;27178;49.460;10.850;2023-08-01T12:31:32;23.40;73.30
41437;DHT22;27178;49.460;10.850;2023-08-01T12:34:00;24.80;74.00
41437;DHT22;27178;49.460;10.850;2023-08-01T12:36:29;23.90;73.10
41437;DHT22;27178;49.460;10.850;2023-08-01T12:38:58;23.90;72.30
41437;DHT22;27178;49.460;10.850;2023-08-01T12:41:26;23.90;71.40
41437;DHT22;27178;49.460;10.850;2023-08-01T12:43:54;24.00;70.80
41437;DHT22;27178;49.460;10.850;2023-08-01T12:46:24;24.70;71.20
41437;DHT22;27178;49.460;10.850;2023-08-01T12:48:53;24.20;70.90
41437;DHT22;27178;49.460;10.850;2023-08-01T12:51:21;24.00;70.10
41437;DHT22;27178;49.460;10.850;2023-08-01T12:53:49;24.00;69.40
41437;DHT22;27178;49.460;10.850;2023-08-01T12:56:18;24.40;69.80
41437;DHT22;27178;49.460;10.850;2023-08-01T12:58:46;24.90;69.80
41437;DHT22;27178;49.460;10.850;2023-08-01T13:01:14;24.90;69.60
41437;DHT22;27178;49.460;10.850;2023-08-01T13:03:44;23.80;68.90
41437;DHT22;27178;49.460;10.850;2023-08-01T13:06:12;24.60;68.70
41437;DHT22;27178;49.460;10.850;2023-08-01T13:08:41;24.70;69.00
41437;DHT22;27178;49.460;10.850;2023-08-01T13:11:10;23.70;68.50
41437;DHT22;27178;49.460;10.850;2023-08-01T13:13:40;23.80;69.00
41437;DHT22;27178;49.460;10.850;2023-08-01T13:16:09;24.40;69.40
41437;DHT22;27178;49.460;10.850;2023-08-01T13:18:37;23.50;68.70
41437;DHT22;27178;49.460;10.850;2023-08-01T13:21:12;23.40;69.50
41437;DHT22;27178;49.460;10.850;2023-08-01T13:23:41;23.40;69.90
41437;DHT22;27178;49.460;10.850;2023-08-01T13:26:09;23.60;70.50
41437;DHT22;27178;49.460;10.850;2023-08-01T13:28:37;24.60;71.40
41437;DHT22;27178;49.460;10.850;2023-08-01T13:31:06;23.90;70.90
41437;DHT22;27178;49.460;10.850;2023-08-01T13:33:34;24.10;70.30
41437;DHT22;27178;49.460;10.850;2023-08-01T13:36:02;24.20;69.70
41437;DHT22;27178;49.460;10.850;2023-08-01T13:38:32;24.20;68.20
41437;DHT22;27178;49.460;10.850;2023-08-01T13:41:00;24.30;67.70
41437;DHT22;27178;49.460;10.850;2023-08-01T13:43:28;24.10;67.90
41437;DHT22;27178;49.460;10.850;2023-08-01T13:45:57;24.20;68.30
41437;DHT22;27178;49.460;10.850;2023-08-01T13:48:27;24.20;69.20
41437;DHT22;27178;49.460;10.850;2023-08-01T13:50:57;23.90;69.00
41437;DHT22;27178;49.460;10.850;2023-08-01T13:53:25;23.70;69.70
41437;DHT22;27178;49.460;10.850;2023-08-01T13:55:55;23.60;70.00
41437;DHT22;27178;49.460;10.850;2023-08-01T13:58:24;23.60;69.60
41437;DHT22;27178;49.460;10.850;2023-08-01T14:00:52;23.40;70.20
41437;DHT22;27178;49.460;10.850;2023-08-01T14:03:20;23.30;70.70
41437;DHT22;27178;49.460;10.850;2023-08-01T14:05:48;23.20;72.00
41437;DHT22;27178;49.460;10.850;2023-08-01T14:08:16;23.20;71.80
41437;DHT22;27178;49.460;10.850;2023-08-01T14:10:45;23.30;72.00
41437;DHT22;27178;49.460;10.850;2023-08-01T14:13:15;23.20;72.80
41437;DHT22;27178;49.460;10.850;2023-08-01T14:15:43;23.40;73.50
41437;DHT22;27178;49.460;10.850;2023-08-01T14:18:11;23.40;73.10
41437;DHT22;27178;49.460;10.850;2023-08-01T14:20:39;24.40;73.30
41437;DHT22;27178;49.460;10.850;2023-08-01T14:23:08;24.30;72.60
41437;DHT22;27178;49.460;10.850;2023-08-01T14:25:36;23.60;72.10
41437;DHT22;27178;49.460;10.850;2023-08-01T14:28:05;23.80;71.50
41437;DHT22;27178;49.460;10.850;2023-08-01T14:30:35;23.80;71.40
41437;DHT22;27178;49.460;10.850;2023-08-01T14:33:03;23.70;71.50
41437;DHT22;27178;49.460;10.850;2023-08-01T14:35:32;24.20;71.10
41437;DHT22;27178;49.460;10.850;2023-08-01T14:38:01;24.00;71.60
41437;DHT22;27178;49.460;10.850;2023-08-01T14:40:29;24.00;71.30
41437;DHT22;27178;49.460;10.850;2023-08-01T14:42:57;24.20;71.30
41437;DHT22;27178;49.460;10.850;2023-08-01T14:45:25;25.50;72.30
41437;DHT22;27178;49.460;10.850;2023-08-01T14:47:55;24.20;70.90
41437;DHT22;27178;49.460;10.850;2023-08-01T14:50:24;24.20;70.90
41437;DHT22;27178;49.460;10.850;2023-08-01T14:52:52;24.90;71.80
41437;DHT22;27178;49.460;10.850;2023-08-01T14:55:20;26.20;73.40
41437;DHT22;27178;49.460;10.850;2023-08-01T14:57:48;24.80;72.20
41437;DHT22;27178;49.460;10.850;2023-08-01T15:00:17;24.80;72.40
41437;DHT22;27178;49.460;10.850;2023-08-01T15:02:46;25.20;72.20
41437;DHT22;27178;49.460;10.850;2023-08-01T15:05:16;25.60;72.00
41437;DHT22;27178;49.460;10.850;2023-08-01T15:07:45;25.60;71.30
41437;DHT22;27178;49.460;10.850;2023-08-01T15:10:13;26.40;71.20
41437;DHT22;27178;49.460;10.850;2023-08-01T15:12:41;27.10;71.40
41437;DHT22;27178;49.460;10.850;2023-08-01T15:15:10;27.80;72.10
41437;DHT22;27178;49.460;10.850;2023-08-01T15:17:38;28.00;71.60
41437;DHT22;27178;49.460;10.850;2023-08-01T15:20:07;27.20;69.60
41437;DHT22;27178;49.460;10.850;2023-08-01T15:22:37;26.90;68.10
41437;DHT22;27178;49.460;10.850;2023-08-01T15:25:06;27.10;67.80
41437;DHT22;27178;49.460;10.850;2023-08-01T15:27:34;27.30;67.70